createdAt,value
2018-12-21T00:00:30.386Z,4.08
2018-12-21T00:02:56.286Z,4.21
2018-12-21T00:05:22.165Z,4.14
2018-12-21T00:07:48.063Z,4.15
2018-12-21T00:10:13.937Z,4.03
2018-12-21T00:12:39.809Z,3.91
2018-12-21T00:15:06.230Z,3.80
2018-12-21T00:17:34.754Z,3.91
2018-12-21T00:20:07.170Z,3.83
2018-12-21T00:22:33.037Z,3.92
2018-12-21T00:24:58.879Z,3.93
2018-12-21T00:27:24.729Z,3.99
2018-12-21T00:29:50.562Z,3.97
2018-12-21T00:32:22.417Z,4.04
2018-12-21T00:34:54.562Z,4.00
2018-12-21T00:37:26.648Z,4.02
2018-12-21T00:39:58.703Z,4.15
2018-12-21T00:42:29.462Z,4.20
2018-12-21T00:44:57.399Z,4.22
2018-12-21T00:47:23.262Z,4.21
2018-12-21T00:49:49.096Z,4.17
2018-12-21T00:52:14.942Z,4.21
2018-12-21T00:54:40.779Z,4.22
2018-12-21T00:57:06.651Z,4.22
2018-12-21T00:59:32.510Z,4.23
2018-12-21T01:01:58.438Z,4.26
2018-12-21T01:04:24.318Z,4.24
2018-12-21T01:06:50.288Z,4.19
2018-12-21T01:09:16.150Z,4.27
2018-12-21T01:11:42.011Z,4.28
2018-12-21T01:14:07.971Z,4.29
2018-12-21T01:16:33.823Z,4.30
2018-12-21T01:18:59.718Z,4.24
2018-12-21T01:21:25.601Z,4.31
2018-12-21T01:23:51.562Z,4.31
2018-12-21T01:26:17.433Z,4.26
2018-12-21T01:28:43.433Z,4.32
2018-12-21T01:31:09.478Z,4.33
2018-12-21T01:33:35.372Z,4.28
2018-12-21T01:36:02.012Z,4.27
2018-12-21T01:38:27.863Z,4.25
2018-12-21T01:40:53.750Z,4.30
2018-12-21T01:43:19.621Z,4.31
2018-12-21T01:45:45.488Z,4.27
2018-12-21T01:48:11.358Z,4.29
2018-12-21T01:50:37.291Z,4.29
2018-12-21T01:53:03.164Z,4.28
2018-12-21T01:55:29.039Z,4.24
2018-12-21T01:57:54.874Z,4.28
2018-12-21T02:00:20.757Z,4.27
2018-12-21T02:02:46.614Z,4.31
2018-12-21T02:05:12.433Z,4.28
2018-12-21T02:07:38.286Z,4.25
2018-12-21T02:10:05.427Z,4.22
2018-12-21T02:12:31.522Z,4.23
2018-12-21T02:14:57.364Z,4.32
2018-12-21T02:17:23.253Z,4.27
2018-12-21T02:19:49.098Z,4.17
2018-12-21T02:22:14.994Z,4.15
2018-12-21T02:24:40.846Z,4.18
2018-12-21T02:27:06.733Z,4.11
2018-12-21T02:29:32.572Z,4.11
2018-12-21T02:31:58.506Z,4.13
2018-12-21T02:34:24.365Z,4.11
2018-12-21T02:36:50.236Z,4.04
2018-12-21T02:39:16.102Z,4.00
2018-12-21T02:41:41.965Z,4.02
2018-12-21T02:44:07.941Z,4.04
2018-12-21T02:46:33.910Z,3.98
2018-12-21T02:48:59.762Z,3.93
2018-12-21T02:51:25.645Z,3.93
2018-12-21T02:53:51.481Z,3.98
2018-12-21T02:56:17.317Z,4.02
2018-12-21T02:58:43.177Z,3.94
2018-12-21T03:01:09.047Z,3.91
2018-12-21T03:03:34.941Z,3.92
2018-12-21T03:06:00.773Z,3.93
2018-12-21T03:08:26.608Z,3.98
2018-12-21T03:10:52.566Z,3.97
2018-12-21T03:13:18.416Z,3.95
2018-12-21T03:15:44.281Z,3.95
2018-12-21T03:18:10.141Z,3.90
2018-12-21T03:20:35.990Z,3.85
2018-12-21T03:23:01.910Z,3.86
2018-12-21T03:25:27.902Z,3.88
2018-12-21T03:27:53.753Z,3.78
2018-12-21T03:30:19.627Z,3.80
2018-12-21T03:32:45.472Z,3.34
2018-12-21T03:35:11.428Z,3.77
2018-12-21T03:37:37.278Z,3.77
2018-12-21T03:40:04.666Z,3.79
2018-12-21T03:42:30.520Z,3.69
2018-12-21T03:44:56.354Z,3.77
2018-12-21T03:47:22.179Z,3.70
2018-12-21T03:49:48.047Z,3.71
2018-12-21T03:52:13.912Z,3.76
2018-12-21T03:54:39.790Z,3.75
2018-12-21T03:57:05.682Z,3.78
2018-12-21T03:59:31.527Z,3.79
2018-12-21T04:04:37.594Z,3.79
2018-12-21T04:07:03.546Z,3.82
2018-12-21T04:09:29.397Z,3.86
2018-12-21T04:11:55.265Z,3.86
2018-12-21T04:14:21.121Z,3.85
2018-12-21T04:16:46.982Z,3.91
2018-12-21T04:19:12.854Z,3.85
2018-12-21T04:21:38.890Z,3.92
2018-12-21T04:24:04.850Z,3.85
2018-12-21T04:26:30.831Z,3.88
2018-12-21T04:28:56.684Z,3.91
2018-12-21T04:31:22.522Z,3.91
2018-12-21T04:33:48.374Z,3.85
2018-12-21T04:36:14.210Z,3.81
2018-12-21T04:38:40.083Z,3.81
2018-12-21T04:41:05.964Z,3.81
2018-12-21T04:43:31.808Z,3.77
2018-12-21T04:45:57.662Z,3.74
2018-12-21T04:48:23.502Z,3.75
2018-12-21T04:50:49.340Z,3.78
2018-12-21T04:53:15.457Z,3.74
2018-12-21T04:55:41.305Z,3.75
2018-12-21T04:58:07.196Z,3.73
2018-12-21T05:00:33.041Z,3.69
2018-12-21T05:02:58.913Z,3.76
2018-12-21T05:05:24.781Z,3.84
2018-12-21T05:07:50.650Z,3.74
2018-12-21T05:10:16.525Z,3.74
2018-12-21T05:12:42.374Z,3.73
2018-12-21T05:15:08.689Z,3.73
2018-12-21T05:17:34.577Z,3.65
2018-12-21T05:20:00.441Z,3.73
2018-12-21T05:22:26.286Z,3.67
2018-12-21T05:24:52.165Z,3.68
2018-12-21T05:27:18.170Z,3.60
2018-12-21T05:29:44.043Z,3.70
2018-12-21T05:32:09.917Z,3.72
2018-12-21T05:34:35.797Z,3.71
2018-12-21T05:37:01.738Z,3.66
2018-12-21T05:39:27.602Z,3.70
2018-12-21T05:41:53.456Z,3.68
2018-12-21T05:44:19.457Z,3.69
2018-12-21T05:46:45.345Z,3.64
2018-12-21T05:49:11.191Z,3.58
2018-12-21T05:51:37.181Z,3.58
2018-12-21T05:54:03.318Z,3.61
2018-12-21T05:56:29.190Z,3.67
2018-12-21T05:58:55.037Z,3.69
2018-12-21T06:01:20.885Z,3.51
2018-12-21T06:03:46.753Z,3.60
2018-12-21T06:06:12.632Z,3.58
2018-12-21T06:08:38.472Z,3.62
2018-12-21T06:11:04.331Z,3.61
2018-12-21T06:13:30.229Z,3.77
2018-12-21T06:15:56.097Z,3.69
2018-12-21T06:18:21.994Z,3.78
2018-12-21T06:20:47.905Z,3.78
2018-12-21T06:23:13.771Z,3.74
2018-12-21T06:25:39.631Z,3.82
2018-12-21T06:28:05.502Z,3.85
2018-12-21T06:30:31.347Z,3.74
2018-12-21T06:32:57.249Z,3.78
2018-12-21T06:35:23.217Z,3.74
2018-12-21T06:37:49.078Z,3.67
2018-12-21T06:40:14.919Z,3.72
2018-12-21T06:42:40.766Z,3.70
2018-12-21T06:45:06.741Z,3.70
2018-12-21T06:47:32.602Z,3.68
2018-12-21T06:49:58.462Z,3.67
2018-12-21T06:52:24.332Z,3.74
2018-12-21T06:54:50.282Z,3.75
2018-12-21T06:57:16.142Z,3.79
2018-12-21T06:59:42.026Z,3.78
2018-12-21T07:02:07.934Z,3.71
2018-12-21T07:04:33.822Z,3.69
2018-12-21T07:06:59.674Z,3.78
2018-12-21T07:09:25.631Z,3.69
2018-12-21T07:11:51.471Z,3.79
2018-12-21T07:14:17.338Z,3.72
2018-12-21T07:16:43.211Z,3.81
2018-12-21T07:19:09.058Z,3.76
2018-12-21T07:21:35.050Z,3.73
2018-12-21T07:24:00.898Z,3.71
2018-12-21T07:26:26.771Z,3.82
2018-12-21T07:28:52.631Z,3.75
2018-12-21T07:31:18.527Z,3.88
2018-12-21T07:33:44.357Z,3.80
2018-12-21T07:36:10.219Z,3.82
2018-12-21T07:38:36.075Z,3.89
2018-12-21T07:41:01.938Z,3.87
2018-12-21T07:43:27.793Z,3.94
2018-12-21T07:45:53.632Z,3.93
2018-12-21T07:48:19.501Z,3.94
2018-12-21T07:50:45.355Z,3.98
2018-12-21T07:53:11.205Z,3.92
2018-12-21T07:55:37.065Z,3.97
2018-12-21T07:58:02.957Z,3.94
2018-12-21T08:00:28.794Z,3.97
2018-12-21T08:02:54.651Z,3.99
2018-12-21T08:05:20.531Z,4.06
2018-12-21T08:07:46.433Z,4.13
2018-12-21T08:10:13.043Z,4.11
2018-12-21T08:12:38.917Z,4.11
2018-12-21T08:15:04.871Z,4.03
2018-12-21T08:17:30.739Z,4.07
2018-12-21T08:19:56.615Z,4.22
2018-12-21T08:22:22.438Z,4.25
2018-12-21T08:24:48.287Z,4.19
2018-12-21T08:27:14.166Z,4.36
2018-12-21T08:29:40.027Z,4.36
2018-12-21T08:32:05.907Z,4.38
2018-12-21T08:34:31.790Z,4.40
2018-12-21T08:36:57.642Z,4.48
2018-12-21T08:39:23.546Z,4.49
2018-12-21T08:41:49.390Z,4.49
2018-12-21T08:44:15.357Z,4.46
2018-12-21T08:46:41.174Z,4.49
2018-12-21T08:49:07.101Z,4.59
2018-12-21T08:51:33.077Z,4.57
2018-12-21T08:53:58.936Z,4.56
2018-12-21T08:56:24.942Z,4.64
2018-12-21T08:58:50.778Z,4.63
2018-12-21T09:01:16.874Z,4.60
2018-12-21T09:03:42.919Z,4.63
2018-12-21T09:06:08.798Z,4.57
2018-12-21T09:08:34.640Z,4.64
2018-12-21T09:11:00.649Z,4.66
2018-12-21T09:13:26.607Z,4.62
2018-12-21T09:15:52.458Z,4.56
2018-12-21T09:18:18.319Z,4.59
2018-12-21T09:20:44.199Z,4.51
2018-12-21T09:23:10.066Z,4.49
2018-12-21T09:25:35.973Z,4.56
2018-12-21T09:28:01.814Z,4.58
2018-12-21T09:30:27.777Z,4.54
2018-12-21T09:32:54.119Z,4.52
2018-12-21T09:35:20.001Z,4.49
2018-12-21T09:37:45.826Z,4.46
2018-12-21T09:40:11.794Z,4.45
2018-12-21T09:42:37.706Z,4.44
2018-12-21T09:45:03.814Z,4.38
2018-12-21T09:47:29.683Z,4.40
2018-12-21T09:49:55.606Z,4.35
2018-12-21T09:52:21.502Z,4.30
2018-12-21T09:54:47.353Z,4.27
2018-12-21T09:57:13.257Z,4.20
2018-12-21T09:59:39.130Z,4.28
2018-12-21T10:02:05.180Z,4.20
2018-12-21T10:04:31.007Z,4.24
2018-12-21T10:06:56.885Z,4.27
2018-12-21T10:09:22.754Z,4.27
2018-12-21T10:11:48.625Z,4.23
2018-12-21T10:14:14.511Z,4.22
2018-12-21T10:16:40.401Z,4.23
2018-12-21T10:19:06.418Z,4.28
2018-12-21T10:21:32.406Z,4.28
2018-12-21T10:23:58.299Z,4.26
2018-12-21T10:26:24.549Z,4.29
2018-12-21T10:28:50.523Z,4.36
2018-12-21T10:31:16.526Z,4.31
2018-12-21T10:33:42.413Z,4.33
2018-12-21T10:36:08.274Z,4.39
2018-12-21T10:38:37.013Z,4.38
2018-12-21T10:41:02.896Z,4.42
2018-12-21T10:43:28.766Z,4.49
2018-12-21T10:45:54.637Z,4.58
2018-12-21T10:48:20.650Z,4.65
2018-12-21T10:50:46.490Z,4.70
2018-12-21T10:53:12.451Z,4.82
2018-12-21T10:55:38.305Z,4.89
2018-12-21T10:58:04.142Z,4.89
2018-12-21T11:00:30.033Z,5.01
2018-12-21T11:02:55.878Z,5.08
2018-12-21T11:05:21.847Z,5.15
2018-12-21T11:07:47.674Z,5.17
2018-12-21T11:10:13.522Z,5.19
2018-12-21T11:12:39.390Z,5.21
2018-12-21T11:15:05.382Z,5.24
2018-12-21T11:17:31.310Z,5.27
2018-12-21T11:19:57.169Z,5.27
2018-12-21T11:22:23.059Z,5.29
2018-12-21T11:24:48.909Z,5.30
2018-12-21T11:27:14.849Z,5.29
2018-12-21T11:29:40.708Z,5.32
2018-12-21T11:32:06.638Z,5.39
2018-12-21T11:34:32.470Z,5.42
2018-12-21T11:36:58.321Z,5.46
2018-12-21T11:39:31.224Z,5.50
2018-12-21T11:41:57.084Z,5.52
2018-12-21T11:44:22.947Z,5.54
2018-12-21T11:46:49.817Z,5.56
2018-12-21T11:49:15.683Z,5.58
2018-12-21T11:51:41.602Z,5.61
2018-12-21T11:54:07.524Z,5.60
2018-12-21T11:56:33.615Z,5.61
2018-12-21T11:58:59.477Z,5.65
2018-12-21T12:01:25.351Z,5.62
2018-12-21T12:03:51.220Z,5.62
2018-12-21T12:06:17.112Z,5.59
2018-12-21T12:08:42.990Z,5.58
2018-12-21T12:11:08.882Z,5.59
2018-12-21T12:13:34.801Z,5.59
2018-12-21T12:16:00.694Z,5.53
2018-12-21T12:18:26.554Z,5.52
2018-12-21T12:20:52.453Z,5.48
2018-12-21T12:23:18.340Z,5.49
2018-12-21T12:32:37.363Z,5.41
2018-12-21T12:35:04.338Z,5.43
2018-12-21T12:37:30.319Z,5.41
2018-12-21T12:39:56.186Z,5.43
2018-12-21T12:42:22.065Z,5.48
2018-12-21T12:44:48.212Z,5.50
2018-12-21T12:47:14.074Z,5.48
2018-12-21T12:49:40.093Z,5.51
2018-12-21T12:52:06.033Z,5.53
2018-12-21T12:54:31.869Z,5.53
2018-12-21T12:57:04.815Z,5.03
2018-12-21T12:59:30.802Z,5.53
2018-12-21T13:01:58.495Z,5.52
2018-12-21T13:04:24.566Z,5.54
2018-12-21T13:06:50.466Z,5.55
2018-12-21T13:09:16.423Z,5.56
2018-12-21T13:11:42.330Z,5.60
2018-12-21T13:14:08.421Z,5.63
2018-12-21T13:16:34.309Z,5.63
2018-12-21T13:19:00.156Z,5.59
2018-12-21T13:21:26.059Z,5.63
2018-12-21T13:23:51.942Z,5.63
2018-12-21T13:26:17.830Z,5.63
2018-12-21T13:28:44.582Z,5.67
2018-12-21T13:31:10.483Z,5.67
2018-12-21T13:33:36.528Z,5.71
2018-12-21T13:36:02.411Z,5.74
2018-12-21T13:38:28.246Z,5.78
2018-12-21T13:40:54.421Z,5.84
2018-12-21T13:43:20.328Z,5.88
2018-12-21T13:45:46.191Z,5.91
2018-12-21T13:48:12.030Z,5.90
2018-12-21T13:50:37.906Z,5.93
2018-12-21T13:53:03.808Z,5.95
2018-12-21T13:55:29.853Z,5.95
2018-12-21T13:57:55.699Z,5.97
2018-12-21T14:00:21.537Z,6.00
2018-12-21T14:02:47.433Z,6.04
2018-12-21T14:05:13.407Z,6.07
2018-12-21T14:07:39.312Z,6.08
2018-12-21T14:10:08.439Z,6.05
2018-12-21T14:12:34.379Z,6.08
2018-12-21T14:15:00.271Z,6.11
2018-12-21T14:17:26.263Z,6.09
2018-12-21T14:19:52.145Z,6.17
2018-12-21T14:22:18.022Z,6.22
2018-12-21T14:24:43.973Z,6.30
2018-12-21T14:27:09.829Z,6.27
2018-12-21T14:29:35.837Z,6.35
2018-12-21T14:32:01.699Z,6.36
2018-12-21T14:34:27.578Z,6.43
2018-12-21T14:36:53.455Z,6.47
2018-12-21T14:39:19.326Z,6.46
2018-12-21T14:41:45.218Z,6.53
2018-12-21T14:44:11.090Z,6.56
2018-12-21T14:46:37.014Z,6.52
2018-12-21T14:49:03.015Z,6.50
2018-12-21T14:51:29.009Z,6.56
2018-12-21T14:53:54.946Z,6.41
2018-12-21T14:56:20.840Z,6.56
2018-12-21T14:58:46.691Z,6.59
2018-12-21T15:01:12.668Z,6.59
2018-12-21T15:03:38.699Z,6.57
2018-12-21T15:06:04.588Z,6.64
2018-12-21T15:08:30.442Z,6.63
2018-12-21T15:10:56.337Z,6.58
2018-12-21T15:13:22.205Z,6.57
2018-12-21T15:15:48.129Z,6.63
2018-12-21T15:18:14.036Z,6.61
2018-12-21T15:20:39.919Z,6.62
2018-12-21T15:23:05.819Z,6.64
2018-12-21T15:25:31.851Z,6.65
2018-12-21T15:27:57.732Z,6.63
2018-12-21T15:30:23.711Z,6.65
2018-12-21T15:32:49.629Z,6.64
2018-12-21T15:35:15.606Z,6.63
2018-12-21T15:37:41.518Z,6.68
2018-12-21T15:40:07.408Z,6.73
2018-12-21T15:42:33.375Z,6.72
2018-12-21T15:44:59.262Z,6.78
2018-12-21T15:47:25.154Z,6.71
2018-12-21T15:49:51.038Z,6.90
2018-12-21T15:52:16.910Z,6.98
2018-12-21T15:54:42.794Z,7.01
2018-12-21T15:57:08.658Z,7.06
2018-12-21T15:59:34.538Z,7.19
2018-12-21T16:02:00.443Z,7.23
2018-12-21T16:04:26.414Z,7.25
2018-12-21T16:06:52.315Z,7.29
2018-12-21T16:09:18.228Z,7.31
2018-12-21T16:11:44.062Z,7.36
2018-12-21T16:14:10.260Z,7.39
2018-12-21T16:16:36.419Z,7.39
2018-12-21T16:19:02.307Z,7.43
2018-12-21T16:21:28.179Z,7.50
2018-12-21T16:23:54.066Z,7.52
2018-12-21T16:26:19.936Z,7.57
2018-12-21T16:28:45.818Z,7.60
2018-12-21T16:31:11.742Z,7.63
2018-12-21T16:33:37.630Z,7.66
2018-12-21T16:36:03.506Z,7.70
2018-12-21T16:38:31.801Z,7.68
2018-12-21T16:40:57.698Z,7.69
2018-12-21T16:43:23.657Z,7.69
2018-12-21T16:45:49.546Z,7.74
2018-12-21T16:48:15.415Z,7.78
2018-12-21T16:50:41.351Z,7.83
2018-12-21T16:53:07.342Z,7.90
2018-12-21T16:55:33.236Z,7.92
2018-12-21T16:57:59.254Z,7.96
2018-12-21T17:00:25.155Z,8.02
2018-12-21T17:02:58.083Z,7.99
2018-12-21T17:05:24.031Z,8.00
2018-12-21T17:07:49.922Z,8.09
2018-12-21T17:10:15.785Z,8.14
2018-12-21T17:12:41.704Z,8.11
2018-12-21T17:15:08.820Z,8.09
2018-12-21T17:17:34.692Z,8.10
2018-12-21T17:20:00.571Z,8.10
2018-12-21T17:22:26.428Z,8.09
2018-12-21T17:24:52.290Z,8.09
2018-12-21T17:27:18.215Z,8.17
2018-12-21T17:29:44.103Z,8.23
2018-12-21T17:32:09.978Z,8.30
2018-12-21T17:34:35.906Z,8.27
2018-12-21T17:37:01.815Z,8.27
2018-12-21T17:39:27.712Z,8.30
2018-12-21T17:41:53.660Z,8.36
2018-12-21T17:44:19.598Z,8.35
2018-12-21T17:46:45.603Z,8.38
2018-12-21T17:49:11.559Z,8.45
2018-12-21T17:51:38.526Z,8.53
2018-12-21T17:54:04.893Z,8.58
2018-12-21T17:56:30.930Z,8.63
2018-12-21T17:58:56.805Z,8.61
2018-12-21T18:01:23.059Z,8.64
2018-12-21T18:03:50.855Z,8.66
2018-12-21T18:06:16.832Z,8.65
2018-12-21T18:08:42.823Z,8.65
2018-12-21T18:11:08.691Z,8.69
2018-12-21T18:13:34.571Z,8.73
2018-12-21T18:16:00.458Z,8.83
2018-12-21T18:18:26.354Z,8.80
2018-12-21T18:20:52.233Z,8.79
2018-12-21T18:23:18.117Z,8.82
2018-12-21T18:25:44.905Z,8.79
2018-12-21T18:28:14.325Z,8.78
2018-12-21T18:30:40.320Z,8.79
2018-12-21T18:33:10.461Z,8.83
2018-12-21T18:35:34.118Z,8.80
2018-12-21T18:38:00.059Z,8.85
2018-12-21T18:40:25.923Z,8.91
2018-12-21T18:42:51.829Z,8.88
2018-12-21T18:45:17.702Z,8.91
2018-12-21T18:47:43.638Z,8.98
2018-12-21T18:50:10.241Z,9.06
2018-12-21T18:52:36.129Z,9.05
2018-12-21T18:55:05.034Z,9.16
2018-12-21T18:57:30.907Z,9.09
2018-12-21T18:59:56.790Z,9.07
2018-12-21T19:02:22.826Z,9.07
2018-12-21T19:04:48.692Z,9.06
2018-12-21T19:07:14.608Z,9.07
2018-12-21T19:09:40.514Z,9.16
2018-12-21T19:12:06.373Z,9.21
2018-12-21T19:14:32.311Z,9.27
2018-12-21T19:16:58.269Z,9.27
2018-12-21T19:19:24.149Z,9.28
2018-12-21T19:21:50.196Z,9.30
2018-12-21T19:24:16.091Z,9.24
2018-12-21T19:26:42.059Z,9.31
2018-12-21T19:29:07.943Z,9.32
2018-12-21T19:31:33.977Z,9.37
2018-12-21T19:34:00.168Z,9.36
2018-12-21T19:36:26.075Z,9.36
2018-12-21T19:38:52.093Z,9.32
2018-12-21T19:41:18.089Z,9.33
2018-12-21T19:43:44.060Z,9.38
2018-12-21T19:46:10.086Z,9.37
2018-12-21T19:48:36.005Z,9.36
2018-12-21T19:51:01.890Z,9.33
2018-12-21T19:53:27.785Z,9.43
2018-12-21T19:55:53.904Z,9.43
2018-12-21T19:58:19.870Z,9.39
2018-12-21T20:00:45.779Z,9.46
2018-12-21T20:03:11.774Z,9.43
2018-12-21T20:05:37.752Z,9.39
2018-12-21T20:08:03.703Z,9.41
2018-12-21T20:10:29.583Z,9.42
2018-12-21T20:12:55.447Z,9.43
2018-12-21T20:15:21.485Z,9.53
2018-12-21T20:17:54.505Z,9.46
2018-12-21T20:20:20.415Z,9.43
2018-12-21T20:22:46.418Z,9.45
2018-12-21T20:25:12.353Z,9.38
2018-12-21T20:27:38.351Z,9.46
2018-12-21T20:30:07.499Z,9.44
2018-12-21T20:32:33.400Z,9.46
2018-12-21T20:34:59.505Z,9.50
2018-12-21T20:37:25.392Z,9.48
2018-12-21T20:39:51.301Z,9.42
2018-12-21T20:42:17.200Z,9.35
2018-12-21T20:44:50.077Z,9.48
2018-12-21T20:47:16.395Z,9.49
2018-12-21T20:49:42.251Z,9.50
2018-12-21T20:52:08.115Z,9.54
2018-12-21T20:54:33.982Z,9.48
2018-12-21T20:56:59.876Z,9.55
2018-12-21T20:59:25.786Z,9.56
2018-12-21T21:01:51.698Z,9.51
2018-12-21T21:04:17.648Z,9.62
2018-12-21T21:06:43.530Z,9.64
2018-12-21T21:09:09.606Z,9.54
2018-12-21T21:11:35.442Z,9.61
2018-12-21T21:14:01.339Z,9.63
2018-12-21T21:16:27.220Z,9.58
2018-12-21T21:18:53.063Z,9.66
2018-12-21T21:21:18.925Z,9.73
2018-12-21T21:23:44.779Z,9.77
2018-12-21T21:26:10.638Z,9.72
2018-12-21T21:28:36.519Z,9.73
2018-12-21T21:31:02.682Z,9.66
2018-12-21T21:33:28.563Z,9.77
2018-12-21T21:35:54.453Z,9.71
2018-12-21T21:38:20.293Z,9.60
2018-12-21T21:40:46.157Z,9.65
2018-12-21T21:43:12.013Z,9.68
2018-12-21T21:45:37.969Z,9.67
2018-12-21T21:48:03.858Z,9.61
2018-12-21T21:50:29.778Z,9.64
2018-12-21T21:52:55.664Z,9.66
2018-12-21T21:55:21.542Z,9.69
2018-12-21T21:57:47.541Z,9.72
2018-12-21T22:00:13.598Z,9.76
2018-12-21T22:02:39.585Z,9.87
2018-12-21T22:05:05.665Z,9.88
2018-12-21T22:07:31.545Z,9.78
2018-12-21T22:09:57.429Z,9.87
2018-12-21T22:12:23.306Z,9.92
2018-12-21T22:14:49.186Z,9.99
2018-12-21T22:17:15.027Z,9.97
2018-12-21T22:19:40.919Z,9.96
2018-12-21T22:22:06.759Z,9.93
2018-12-21T22:24:32.683Z,9.91
2018-12-21T22:26:58.746Z,9.92
2018-12-21T22:29:24.832Z,9.93
2018-12-21T22:31:50.714Z,10.00
2018-12-21T22:34:16.617Z,10.02
2018-12-21T22:36:42.638Z,9.97
2018-12-21T22:39:08.524Z,9.99
2018-12-21T22:41:34.364Z,10.09
2018-12-21T22:44:00.215Z,10.16
2018-12-21T22:46:26.171Z,10.15
2018-12-21T22:48:59.107Z,10.11
2018-12-21T22:51:24.932Z,10.22
2018-12-21T22:53:50.903Z,10.16
2018-12-21T22:56:16.924Z,10.15
2018-12-21T22:58:42.850Z,10.11
2018-12-21T23:01:08.874Z,10.16
2018-12-21T23:03:34.788Z,10.11
2018-12-21T23:06:00.694Z,10.06
2018-12-21T23:08:26.594Z,10.08
2018-12-21T23:10:52.443Z,10.08
2018-12-21T23:13:18.456Z,10.05
2018-12-21T23:15:44.336Z,9.98
2018-12-21T23:18:10.204Z,9.98
2018-12-21T23:20:36.108Z,9.95
2018-12-21T23:23:02.018Z,9.96
2018-12-21T23:25:27.855Z,9.95
2018-12-21T23:27:53.691Z,9.93
2018-12-21T23:30:19.551Z,9.89
2018-12-21T23:32:45.421Z,9.92
2018-12-21T23:35:11.290Z,9.84
2018-12-21T23:37:37.113Z,9.74
2018-12-21T23:40:04.687Z,9.74
2018-12-21T23:42:30.538Z,9.81
2018-12-21T23:44:56.478Z,9.82
2018-12-21T23:47:22.356Z,9.81
2018-12-21T23:49:48.182Z,9.72
2018-12-21T23:52:14.054Z,9.85
2018-12-21T23:54:39.927Z,9.85
2018-12-21T23:57:05.761Z,9.90
2018-12-21T23:59:31.641Z,9.80
